Time;durP1;ratioP1;P1;durP2;ratioP2;P2;SDS_P1;SDS_P2;PMS_P1;PMS_P2;Temp;Humidity;BMP_temperature;BMP_pressure;BME280_temperature;BME280_humidity;BME280_pressure;Samples;Min_cycle;Max_cycle;Signal;HPM_P1;HPM_P2
2021/09/19 00:00:28;;;;;;;8.48;4.72;;;10.70;94.50;;;;;;5018677;28;20022;-68
2021/09/19 00:02:53;;;;;;;12.52;5.43;;;10.60;94.60;;;;;;5016326;28;20034;-68
2021/09/19 00:05:19;;;;;;;10.60;5.57;;;10.60;94.80;;;;;;5019431;28;20092;-67
2021/09/19 00:07:45;;;;;;;8.15;4.88;;;10.60;94.80;;;;;;5015453;28;20029;-68
2021/09/19 00:10:12;;;;;;;9.68;4.95;;;10.50;94.80;;;;;;5011700;28;20037;-68
2021/09/19 00:12:39;;;;;;;9.90;5.53;;;10.50;95.00;;;;;;5019931;28;20366;-68
2021/09/19 00:15:08;;;;;;;9.57;5.10;;;10.50;95.10;;;;;;5010480;28;20448;-68
2021/09/19 00:17:33;;;;;;;9.35;5.10;;;10.50;95.20;;;;;;5016128;28;20032;-67
2021/09/19 00:19:59;;;;;;;9.57;5.57;;;10.40;94.90;;;;;;5023886;28;20104;-68
2021/09/19 00:22:25;;;;;;;12.30;4.80;;;10.40;95.20;;;;;;5015576;28;20022;-68
2021/09/19 00:24:50;;;;;;;9.82;5.13;;;10.40;95.40;;;;;;5013546;28;20030;-67
2021/09/19 00:27:17;;;;;;;12.65;5.13;;;10.50;95.20;;;;;;5016581;28;20034;-68
2021/09/19 00:29:43;;;;;;;10.02;5.35;;;10.50;95.10;;;;;;5019245;28;20044;-67
2021/09/19 00:32:09;;;;;;;11.55;5.30;;;10.30;95.00;;;;;;5017890;28;20485;-67
2021/09/19 00:34:34;;;;;;;10.98;5.45;;;10.30;95.10;;;;;;5013184;28;20091;-68
2021/09/19 00:37:00;;;;;;;9.77;4.72;;;10.30;95.40;;;;;;5017765;28;20021;-68
2021/09/19 00:39:25;;;;;;;11.02;5.18;;;10.20;95.30;;;;;;5018402;28;20057;-69
2021/09/19 00:41:51;;;;;;;9.15;5.22;;;10.30;95.20;;;;;;5014433;28;20120;-68
2021/09/19 00:44:24;;;;;;;10.05;5.20;;;10.20;95.40;;;;;;5019065;28;20377;-68
2021/09/19 00:46:50;;;;;;;8.90;5.15;;;10.20;95.20;;;;;;5020489;28;20036;-68
2021/09/19 00:49:15;;;;;;;10.07;4.85;;;10.20;95.40;;;;;;5019349;28;20116;-68
2021/09/19 00:51:43;;;;;;;8.30;4.85;;;10.20;95.30;;;;;;5013335;28;20026;-68
2021/09/19 00:54:11;;;;;;;11.48;5.13;;;10.10;95.20;;;;;;5015743;28;20087;-68
2021/09/19 00:56:38;;;;;;;8.35;4.97;;;10.10;95.50;;;;;;5011097;28;20029;-68
2021/09/19 00:59:04;;;;;;;13.35;4.93;;;10.10;95.30;;;;;;5013036;28;20018;-68
2021/09/19 01:01:30;;;;;;;12.73;5.32;;;10.10;95.30;;;;;;5014813;28;20032;-67
2021/09/19 01:03:57;;;;;;;11.75;5.20;;;10.10;95.30;;;;;;5012354;28;20562;-68
2021/09/19 01:06:23;;;;;;;9.77;5.40;;;10.10;95.50;;;;;;5023620;28;20243;-68
2021/09/19 01:08:49;;;;;;;14.25;5.32;;;10.10;95.40;;;;;;5020704;28;20033;-69
2021/09/19 01:11:17;;;;;;;11.13;5.13;;;10.10;95.40;;;;;;5016866;28;20032;-68
2021/09/19 01:13:44;;;;;;;12.63;5.93;;;10.00;95.30;;;;;;5008702;28;20204;-68
2021/09/19 01:16:11;;;;;;;11.23;5.03;;;10.00;95.50;;;;;;5012914;28;20026;-68
2021/09/19 01:18:39;;;;;;;14.35;5.70;;;10.00;95.50;;;;;;5004334;28;20408;-68
2021/09/19 01:21:06;;;;;;;11.30;5.90;;;10.00;95.50;;;;;;5015710;28;20249;-68
2021/09/19 01:23:32;;;;;;;9.98;5.00;;;10.00;95.60;;;;;;5011602;28;20026;-68
2021/09/19 01:25:59;;;;;;;13.88;5.45;;;9.90;95.60;;;;;;5012677;28;20030;-68
2021/09/19 01:28:25;;;;;;;9.68;5.22;;;9.80;95.60;;;;;;5013718;28;20158;-68
2021/09/19 01:30:51;;;;;;;12.60;5.78;;;9.80;95.70;;;;;;5018708;28;20034;-69
2021/09/19 01:33:17;;;;;;;11.80;5.03;;;9.80;96.00;;;;;;5011909;28;20112;-68
2021/09/19 01:35:42;;;;;;;9.63;4.93;;;9.80;95.80;;;;;;5017575;28;20032;-68
2021/09/19 01:38:08;;;;;;;12.63;5.65;;;9.80;96.00;;;;;;5013341;28;20325;-68
2021/09/19 01:40:34;;;;;;;16.63;5.57;;;9.70;96.00;;;;;;5017099;28;20104;-68
2021/09/19 01:43:01;;;;;;;9.90;5.78;;;9.70;96.10;;;;;;5010962;28;20045;-68
2021/09/19 01:45:28;;;;;;;9.75;5.55;;;9.60;96.10;;;;;;5018123;28;20075;-68
2021/09/19 01:47:54;;;;;;;14.70;5.72;;;9.70;96.20;;;;;;5010654;28;20053;-69
2021/09/19 01:50:21;;;;;;;12.32;5.78;;;9.60;96.20;;;;;;5023984;28;20030;-68
2021/09/19 01:52:48;;;;;;;13.60;5.95;;;9.60;96.20;;;;;;5020903;28;20026;-68
2021/09/19 01:55:13;;;;;;;13.18;5.90;;;9.60;96.30;;;;;;5017789;28;20021;-68
2021/09/19 01:57:39;;;;;;;12.02;5.55;;;9.60;96.40;;;;;;5014405;28;20045;-68
2021/09/19 02:00:06;;;;;;;10.90;5.38;;;9.60;96.30;;;;;;5012928;28;20021;-68
2021/09/19 02:02:35;;;;;;;12.35;5.35;;;9.50;96.40;;;;;;5008268;28;20087;-68
2021/09/19 02:05:04;;;;;;;14.20;5.85;;;9.50;96.50;;;;;;5016733;28;20026;-68
2021/09/19 02:07:29;;;;;;;11.45;5.25;;;9.50;96.50;;;;;;5015591;28;20087;-68
2021/09/19 02:09:55;;;;;;;13.80;5.68;;;9.50;96.50;;;;;;5015952;28;20038;-68
2021/09/19 02:12:21;;;;;;;12.23;5.43;;;9.50;96.50;;;;;;5017122;28;20025;-68
2021/09/19 02:14:47;;;;;;;18.20;6.10;;;9.40;96.50;;;;;;5016150;28;20053;-67
2021/09/19 02:17:13;;;;;;;10.10;4.78;;;9.40;96.60;;;;;;5011256;28;20019;-67
2021/09/19 02:19:40;;;;;;;12.85;5.88;;;9.40;96.60;;;;;;5019852;28;20021;-68
2021/09/19 02:22:08;;;;;;;12.88;6.15;;;9.30;96.60;;;;;;5019403;28;20197;-67
2021/09/19 02:24:34;;;;;;;11.90;6.00;;;9.30;96.70;;;;;;5014418;28;20038;-68
2021/09/19 02:26:59;;;;;;;14.63;6.32;;;9.30;96.70;;;;;;5017734;28;20396;-67
2021/09/19 02:29:25;;;;;;;17.63;6.07;;;9.30;96.90;;;;;;5015148;28;20484;-68
2021/09/19 02:31:51;;;;;;;13.52;5.90;;;9.30;96.90;;;;;;5013371;28;20112;-68
2021/09/19 02:34:16;;;;;;;14.43;5.75;;;9.30;96.80;;;;;;5019002;28;20416;-68
2021/09/19 02:36:42;;;;;;;18.75;6.72;;;9.30;96.90;;;;;;5019869;28;20483;-68
2021/09/19 02:39:09;;;;;;;16.75;6.38;;;9.20;96.90;;;;;;5016234;28;20057;-68
2021/09/19 02:41:36;;;;;;;13.13;6.15;;;9.20;97.00;;;;;;5027877;28;20054;-68
2021/09/19 02:44:02;;;;;;;15.30;7.05;;;9.30;97.00;;;;;;5018219;28;20037;-67
2021/09/19 02:46:28;;;;;;;15.07;6.60;;;9.20;97.10;;;;;;5020358;28;20040;-67
2021/09/19 02:48:53;;;;;;;14.13;6.13;;;9.20;97.00;;;;;;5017598;28;20397;-68
2021/09/19 02:51:19;;;;;;;13.88;6.28;;;9.20;97.00;;;;;;5024530;28;20163;-68
2021/09/19 02:53:45;;;;;;;17.77;6.40;;;9.10;97.00;;;;;;5026329;28;20388;-68
2021/09/19 02:56:11;;;;;;;17.80;6.55;;;9.10;97.10;;;;;;5015095;28;20045;-68
2021/09/19 02:58:37;;;;;;;12.80;6.47;;;9.10;97.20;;;;;;5016493;28;20034;-68
2021/09/19 03:01:04;;;;;;;13.07;6.13;;;9.10;97.20;;;;;;5019571;28;20033;-68
2021/09/19 03:03:29;;;;;;;15.35;6.50;;;9.10;97.40;;;;;;5014287;28;20106;-68
2021/09/19 03:05:55;;;;;;;16.73;6.93;;;9.10;97.20;;;;;;5015251;28;20120;-67
2021/09/19 03:08:20;;;;;;;17.23;7.63;;;9.10;97.20;;;;;;5021973;28;20392;-68
2021/09/19 03:10:46;;;;;;;15.43;6.93;;;9.10;97.30;;;;;;5020613;28;20082;-68
2021/09/19 03:13:12;;;;;;;12.73;5.80;;;9.10;97.30;;;;;;5010369;28;20021;-68
2021/09/19 03:15:38;;;;;;;17.02;6.60;;;9.00;97.30;;;;;;5016871;28;20022;-68
2021/09/19 03:18:05;;;;;;;16.27;6.85;;;9.00;97.30;;;;;;5019425;28;20504;-69
2021/09/19 03:20:31;;;;;;;16.80;6.70;;;9.00;97.40;;;;;;5019230;28;20029;-68
2021/09/19 03:22:57;;;;;;;16.98;7.05;;;8.90;97.40;;;;;;5016008;28;20500;-68
2021/09/19 03:25:22;;;;;;;14.15;6.28;;;8.90;97.50;;;;;;5022865;28;20029;-68
2021/09/19 03:27:48;;;;;;;18.45;7.05;;;9.00;97.60;;;;;;5017223;28;20518;-68
2021/09/19 03:30:15;;;;;;;19.20;7.03;;;8.90;97.60;;;;;;5016305;28;20033;-68
2021/09/19 03:32:42;;;;;;;14.95;7.30;;;8.90;97.60;;;;;;5009980;28;20030;-68
2021/09/19 03:35:08;;;;;;;20.55;7.45;;;8.80;97.60;;;;;;5022664;28;20044;-68
2021/09/19 03:37:34;;;;;;;21.58;8.27;;;8.80;97.70;;;;;;5021844;28;20033;-68
2021/09/19 03:39:59;;;;;;;20.90;7.55;;;8.90;97.80;;;;;;5015480;28;20476;-68
2021/09/19 03:42:25;;;;;;;18.90;7.55;;;8.80;97.80;;;;;;5014379;28;20044;-69
2021/09/19 03:44:51;;;;;;;16.55;7.68;;;8.80;97.80;;;;;;5021476;28;20026;-69
2021/09/19 03:47:17;;;;;;;19.52;7.63;;;8.80;97.90;;;;;;5016503;28;20567;-68
2021/09/19 03:49:43;;;;;;;19.50;7.18;;;8.80;97.80;;;;;;5025814;28;20068;-68
2021/09/19 03:52:09;;;;;;;23.10;7.35;;;8.80;97.90;;;;;;5010494;28;20064;-68
2021/09/19 03:54:35;;;;;;;21.90;7.53;;;8.80;97.90;;;;;;5024403;28;20033;-68
2021/09/19 03:57:01;;;;;;;24.30;8.55;;;8.90;97.90;;;;;;5008234;28;20022;-68
2021/09/19 03:59:27;;;;;;;19.33;7.97;;;8.90;98.00;;;;;;5026920;28;20056;-68
2021/09/19 04:01:52;;;;;;;20.58;7.88;;;8.90;97.90;;;;;;5019109;28;20693;-68
2021/09/19 04:04:18;;;;;;;20.33;8.15;;;9.00;98.00;;;;;;5009793;28;20029;-69
2021/09/19 04:06:44;;;;;;;20.40;8.13;;;9.00;98.00;;;;;;5017137;28;20030;-68
2021/09/19 04:09:10;;;;;;;21.80;8.10;;;9.00;97.90;;;;;;5016351;28;20488;-68
2021/09/19 04:11:36;;;;;;;19.80;7.25;;;9.10;97.80;;;;;;5015121;28;20033;-68
2021/09/19 04:14:01;;;;;;;20.33;7.35;;;9.10;97.80;;;;;;5009554;28;20079;-68
2021/09/19 04:16:27;;;;;;;20.13;7.95;;;9.20;97.80;;;;;;5013935;28;20388;-69
2021/09/19 04:18:53;;;;;;;19.20;7.82;;;9.20;97.80;;;;;;5013136;28;20116;-69
2021/09/19 04:21:18;;;;;;;17.13;7.97;;;9.30;97.80;;;;;;5012387;28;20026;-65
2021/09/19 04:23:44;;;;;;;20.92;7.47;;;9.40;97.80;;;;;;5020990;28;20112;-64
2021/09/19 04:26:09;;;;;;;18.25;7.65;;;9.50;97.80;;;;;;5017727;28;20100;-64
2021/09/19 04:28:35;;;;;;;17.58;7.80;;;9.50;97.70;;;;;;5020588;28;20025;-65
2021/09/19 04:31:01;;;;;;;16.63;6.88;;;9.60;97.60;;;;;;5021046;28;20033;-65
2021/09/19 04:33:26;;;;;;;14.15;6.82;;;9.60;97.70;;;;;;5010678;28;20292;-65
2021/09/19 04:35:52;;;;;;;17.15;6.53;;;9.60;97.40;;;;;;5021966;28;20033;-65
2021/09/19 04:38:17;;;;;;;13.95;6.60;;;9.60;97.40;;;;;;5016835;28;20029;-65
2021/09/19 04:40:43;;;;;;;16.92;6.72;;;9.60;97.20;;;;;;5024614;28;20025;-64
2021/09/19 04:43:12;;;;;;;12.60;6.28;;;9.70;97.20;;;;;;5017436;28;20036;-65
2021/09/19 04:45:41;;;;;;;12.10;6.45;;;9.70;97.10;;;;;;5019113;28;20388;-64
2021/09/19 04:48:07;;;;;;;11.27;6.38;;;9.60;97.00;;;;;;5011930;28;20041;-65
2021/09/19 04:50:34;;;;;;;12.77;6.05;;;9.70;96.90;;;;;;5015257;28;20033;-65
2021/09/19 04:52:59;;;;;;;13.02;6.75;;;9.70;96.80;;;;;;5019616;28;20374;-65
2021/09/19 04:55:25;;;;;;;14.65;6.28;;;9.70;96.80;;;;;;5018894;28;20027;-65
2021/09/19 04:57:50;;;;;;;11.45;5.88;;;9.70;96.80;;;;;;5012918;28;20429;-65
2021/09/19 05:00:16;;;;;;;11.45;6.03;;;9.70;96.80;;;;;;5015183;28;20033;-65
2021/09/19 05:02:42;;;;;;;12.48;5.82;;;9.70;96.70;;;;;;5014976;28;20441;-65
2021/09/19 05:05:08;;;;;;;12.57;6.05;;;9.70;96.70;;;;;;5012130;28;20022;-65
2021/09/19 05:07:34;;;;;;;11.52;5.43;;;9.70;96.70;;;;;;5016777;28;20217;-64
2021/09/19 05:09:59;;;;;;;11.63;5.90;;;9.70;96.70;;;;;;5018874;28;20040;-65
2021/09/19 05:12:25;;;;;;;9.90;5.30;;;9.70;96.70;;;;;;5015138;28;20103;-64
2021/09/19 05:14:53;;;;;;;11.73;5.65;;;9.80;96.70;;;;;;5021268;28;20191;-65
2021/09/19 05:17:18;;;;;;;11.80;5.65;;;9.80;96.60;;;;;;5013524;28;20394;-65
2021/09/19 05:19:44;;;;;;;9.80;5.55;;;9.90;96.60;;;;;;5018265;28;20036;-65
2021/09/19 05:22:10;;;;;;;11.52;5.20;;;9.90;96.50;;;;;;5004491;28;20456;-64
2021/09/19 05:24:36;;;;;;;12.43;5.10;;;10.00;96.50;;;;;;5021044;28;20187;-65
2021/09/19 05:27:02;;;;;;;11.40;5.25;;;10.00;96.40;;;;;;5016726;28;20076;-65
2021/09/19 05:29:27;;;;;;;10.05;5.38;;;10.00;96.40;;;;;;5009109;28;20022;-65
2021/09/19 05:31:53;;;;;;;12.10;5.47;;;10.10;96.30;;;;;;5012881;28;20032;-65
2021/09/19 05:34:18;;;;;;;10.88;5.70;;;10.10;96.20;;;;;;5012228;28;20087;-64
2021/09/19 05:36:44;;;;;;;9.50;4.95;;;10.20;96.20;;;;;;5017549;28;20025;-64
2021/09/19 05:39:10;;;;;;;11.18;4.63;;;10.20;96.00;;;;;;5020703;28;20025;-64
2021/09/19 05:41:35;;;;;;;11.07;5.03;;;10.30;96.00;;;;;;5007928;28;20439;-65
2021/09/19 05:44:01;;;;;;;14.05;5.25;;;10.30;96.00;;;;;;5014408;28;20021;-63
2021/09/19 05:46:27;;;;;;;12.48;4.93;;;10.40;95.90;;;;;;5013170;28;20145;-65
2021/09/19 05:48:53;;;;;;;8.90;4.80;;;10.40;95.80;;;;;;5020782;28;20068;-65
2021/09/19 05:51:21;;;;;;;10.20;4.80;;;10.50;95.80;;;;;;5015244;28;20029;-65
2021/09/19 05:53:47;;;;;;;12.50;5.10;;;10.50;95.80;;;;;;5006715;28;20263;-64
2021/09/19 05:56:13;;;;;;;8.55;4.90;;;10.60;95.60;;;;;;5016809;28;20029;-64
2021/09/19 05:58:38;;;;;;;11.07;5.03;;;10.70;95.60;;;;;;5019917;28;20025;-64
2021/09/19 06:01:04;;;;;;;10.00;4.63;;;10.60;95.10;;;;;;5013826;28;20026;-65
2021/09/19 06:03:29;;;;;;;13.95;5.28;;;10.60;94.90;;;;;;5011401;28;20037;-65
2021/09/19 06:05:55;;;;;;;11.48;4.97;;;10.70;95.00;;;;;;5008720;28;20488;-65
2021/09/19 06:08:21;;;;;;;10.30;4.63;;;10.80;95.10;;;;;;5011290;28;20060;-65
2021/09/19 06:10:47;;;;;;;10.35;4.47;;;10.90;95.10;;;;;;5017352;28;20044;-65
2021/09/19 06:13:12;;;;;;;9.00;4.57;;;11.00;94.90;;;;;;5018486;28;20163;-64
2021/09/19 06:15:38;;;;;;;10.07;4.60;;;11.00;94.80;;;;;;5015416;28;20489;-65
2021/09/19 06:18:04;;;;;;;11.52;4.68;;;11.00;94.60;;;;;;5008798;28;20103;-65
2021/09/19 06:20:30;;;;;;;8.30;4.55;;;11.10;94.70;;;;;;5012668;28;20068;-64
2021/09/19 06:22:55;;;;;;;11.63;4.35;;;11.20;94.70;;;;;;5012686;28;20286;-65
2021/09/19 06:25:21;;;;;;;8.50;4.32;;;11.20;94.60;;;;;;5013417;28;20026;-65
2021/09/19 06:27:46;;;;;;;7.70;4.57;;;11.20;94.30;;;;;;5006710;28;20030;-65
2021/09/19 06:30:13;;;;;;;7.78;4.30;;;11.30;94.30;;;;;;5017921;28;20029;-64
2021/09/19 06:32:38;;;;;;;12.18;4.45;;;11.30;94.20;;;;;;5012673;28;20116;-65
2021/09/19 06:35:05;;;;;;;7.53;4.07;;;11.40;94.30;;;;;;5010685;28;20572;-64
2021/09/19 06:37:30;;;;;;;10.60;4.25;;;11.50;94.40;;;;;;5012840;28;20026;-64
2021/09/19 06:39:56;;;;;;;8.48;4.60;;;11.50;94.00;;;;;;5017568;28;20030;-65
2021/09/19 06:42:21;;;;;;;12.68;4.38;;;11.60;94.00;;;;;;5015944;28;20025;-65
2021/09/19 06:44:47;;;;;;;7.22;4.07;;;11.60;93.60;;;;;;5024307;28;20036;-64
2021/09/19 06:47:13;;;;;;;9.05;4.00;;;11.70;93.50;;;;;;5007276;28;20034;-65
2021/09/19 06:49:38;;;;;;;8.45;4.45;;;11.70;93.60;;;;;;5014721;28;20022;-66
2021/09/19 06:52:04;;;;;;;8.43;3.78;;;11.80;93.40;;;;;;5007034;28;20033;-65
2021/09/19 06:54:29;;;;;;;7.07;3.78;;;11.80;92.90;;;;;;5015342;28;20021;-65
2021/09/19 06:56:55;;;;;;;8.93;3.67;;;11.80;92.50;;;;;;5025168;28;20051;-65
2021/09/19 06:59:21;;;;;;;7.88;3.97;;;11.90;92.50;;;;;;5015511;28;20570;-65
2021/09/19 07:01:46;;;;;;;7.70;3.90;;;12.00;92.60;;;;;;5018654;28;20056;-63
2021/09/19 07:04:12;;;;;;;7.60;3.70;;;12.00;91.60;;;;;;5009537;28;20046;-64
2021/09/19 07:06:38;;;;;;;7.03;3.47;;;12.00;91.20;;;;;;5016979;28;20104;-65
2021/09/19 07:09:03;;;;;;;7.00;3.42;;;12.10;91.60;;;;;;5013130;28;20049;-65
2021/09/19 07:11:29;;;;;;;6.38;3.53;;;12.20;91.30;;;;;;5015577;28;20412;-65
2021/09/19 07:13:55;;;;;;;6.18;3.58;;;12.30;91.20;;;;;;5008182;28;20028;-63
2021/09/19 07:16:20;;;;;;;7.97;3.67;;;12.40;91.30;;;;;;5013725;28;20071;-65
2021/09/19 07:18:46;;;;;;;6.30;3.50;;;12.30;89.70;;;;;;5010244;28;20022;-65
2021/09/19 07:21:12;;;;;;;7.07;3.05;;;12.30;89.40;;;;;;5014889;28;20028;-65
2021/09/19 07:23:37;;;;;;;7.93;3.28;;;12.50;89.70;;;;;;5021933;28;20021;-64
2021/09/19 07:26:03;;;;;;;6.43;3.33;;;12.50;89.30;;;;;;5015956;28;20092;-65
2021/09/19 07:28:29;;;;;;;7.45;3.20;;;12.60;89.40;;;;;;5019433;28;20033;-65
2021/09/19 07:30:55;;;;;;;6.03;3.20;;;12.60;89.10;;;;;;5015777;28;20060;-65
2021/09/19 07:33:24;;;;;;;7.78;3.85;;;12.60;88.70;;;;;;5020320;28;20087;-66
2021/09/19 07:35:50;;;;;;;7.22;3.40;;;12.60;88.40;;;;;;5023513;28;20544;-65
2021/09/19 07:38:17;;;;;;;6.55;3.03;;;12.70;89.00;;;;;;5010770;28;20039;-66
2021/09/19 07:40:43;;;;;;;5.25;3.15;;;12.80;88.60;;;;;;5013845;28;20440;-64
2021/09/19 07:43:09;;;;;;;6.20;3.03;;;12.90;88.80;;;;;;5025000;28;20057;-66
2021/09/19 07:45:35;;;;;;;6.88;3.15;;;12.80;87.50;;;;;;5017781;28;20040;-67
2021/09/19 07:48:03;;;;;;;5.95;3.15;;;12.80;87.90;;;;;;5013819;28;20029;-67
2021/09/19 07:50:28;;;;;;;5.80;3.10;;;13.00;87.80;;;;;;5011120;28;20496;-66
2021/09/19 07:52:54;;;;;;;6.38;3.10;;;13.00;88.00;;;;;;5021600;28;20064;-67
2021/09/19 07:55:20;;;;;;;9.65;3.30;;;12.90;87.20;;;;;;5013387;28;20457;-65
2021/09/19 07:57:46;;;;;;;5.60;3.15;;;13.00;88.00;;;;;;5014122;28;20026;-64
2021/09/19 08:00:12;;;;;;;8.13;3.20;;;13.00;87.90;;;;;;5012533;28;20014;-66
2021/09/19 08:02:39;;;;;;;6.25;3.15;;;13.10;87.40;;;;;;5017592;28;20104;-66
2021/09/19 08:05:05;;;;;;;7.70;3.22;;;13.00;86.40;;;;;;5016357;28;20021;-64
2021/09/19 08:07:30;;;;;;;8.00;2.90;;;13.00;86.90;;;;;;5010295;28;20116;-65
2021/09/19 08:09:56;;;;;;;6.05;2.88;;;13.00;86.80;;;;;;5019855;28;20554;-67
2021/09/19 08:12:21;;;;;;;4.28;2.60;;;13.10;86.80;;;;;;5015345;28;20041;-66
2021/09/19 08:14:47;;;;;;;6.82;2.90;;;13.10;85.70;;;;;;5011092;28;20025;-66
2021/09/19 08:17:13;;;;;;;8.32;3.03;;;13.20;86.10;;;;;;5022497;28;20018;-67
2021/09/19 08:19:38;;;;;;;5.40;3.08;;;13.10;85.80;;;;;;5007690;28;20417;-67
2021/09/19 08:22:04;;;;;;;7.45;3.78;;;13.20;85.80;;;;;;5020582;28;20555;-66
2021/09/19 08:24:30;;;;;;;6.88;3.13;;;13.20;84.50;;;;;;5022058;28;20456;-66
2021/09/19 08:26:56;;;;;;;7.13;3.47;;;13.40;86.30;;;;;;5023707;28;20038;-66
2021/09/19 08:29:22;;;;;;;6.85;3.50;;;13.60;85.90;;;;;;5009236;28;20033;-65
2021/09/19 08:31:49;;;;;;;5.32;3.05;;;13.70;85.40;;;;;;5017093;28;20041;-65
2021/09/19 08:34:14;;;;;;;6.57;2.97;;;13.70;85.30;;;;;;5013537;28;20030;-65
2021/09/19 08:36:40;;;;;;;5.97;2.60;;;13.70;84.10;;;;;;5007845;28;20386;-66
2021/09/19 08:39:07;;;;;;;9.98;3.42;;;13.80;83.80;;;;;;5010908;28;20107;-67
2021/09/19 08:41:34;;;;;;;6.47;2.75;;;13.90;84.70;;;;;;5016516;28;20051;-65
2021/09/19 08:44:00;;;;;;;5.35;2.63;;;13.90;83.20;;;;;;5017077;28;20119;-63
2021/09/19 08:46:25;;;;;;;5.47;2.65;;;14.00;84.10;;;;;;5010104;28;20511;-64
2021/09/19 08:48:52;;;;;;;5.55;2.80;;;13.90;82.80;;;;;;5005983;28;20070;-61
2021/09/19 08:51:18;;;;;;;5.63;2.80;;;13.80;82.60;;;;;;5018921;28;20021;-60
2021/09/19 08:53:45;;;;;;;4.82;2.58;;;14.00;83.80;;;;;;5009652;28;20029;-60
2021/09/19 08:56:11;;;;;;;3.95;2.45;;;14.10;81.80;;;;;;5015398;28;20496;-61
2021/09/19 08:58:38;;;;;;;6.20;2.65;;;14.10;81.80;;;;;;5018489;28;20118;-63
2021/09/19 09:01:04;;;;;;;5.30;2.50;;;13.90;80.90;;;;;;5013399;28;20041;-62
2021/09/19 09:03:30;;;;;;;6.70;2.38;;;13.90;81.50;;;;;;5013670;28;20026;-64
2021/09/19 09:05:58;;;;;;;6.90;2.38;;;14.00;81.40;;;;;;5023586;28;20500;-62
2021/09/19 09:08:26;;;;;;;6.47;2.95;;;14.00;80.30;;;;;;5021611;28;20026;-63
2021/09/19 09:10:54;;;;;;;10.30;2.70;;;13.90;80.40;;;;;;5018829;28;20057;-63
2021/09/19 09:13:23;;;;;;;7.82;2.42;;;14.10;80.20;;;;;;5007626;28;20029;-63
2021/09/19 09:15:52;;;;;;;5.45;2.30;;;14.30;81.00;;;;;;5006711;28;20061;-62
2021/09/19 09:18:42;;;;;;;5.28;2.35;;;14.10;79.20;;;;;;5016238;28;20075;-62
2021/09/19 09:21:10;;;;;;;5.38;2.60;;;14.20;80.60;;;;;;5022048;28;20041;-63
2021/09/19 09:23:41;;;;;;;5.00;2.67;;;14.40;78.80;;;;;;5021600;28;20036;-62
2021/09/19 09:26:17;;;;;;;4.38;2.28;;;14.50;79.10;;;;;;5013868;28;20022;-62
2021/09/19 09:29:09;;;;;;;3.88;2.22;;;14.60;79.10;;;;;;5022308;28;20106;-63
2021/09/19 09:31:39;;;;;;;5.15;2.65;;;14.50;76.90;;;;;;5018276;28;20038;-62
2021/09/19 09:34:06;;;;;;;4.43;2.38;;;14.70;77.50;;;;;;5007621;28;20052;-63
2021/09/19 09:36:40;;;;;;;4.45;2.15;;;15.00;78.30;;;;;;5015694;28;20066;-63
2021/09/19 09:39:23;;;;;;;5.30;2.60;;;15.00;76.90;;;;;;5012293;28;20469;-62
2021/09/19 09:41:49;;;;;;;3.58;1.98;;;15.20;77.50;;;;;;5023414;28;20029;-63
2021/09/19 09:44:48;;;;;;;4.28;2.10;;;15.30;78.30;;;;;;5023636;28;20025;-63
2021/09/19 09:47:20;;;;;;;6.47;2.40;;;15.00;74.50;;;;;;5007170;28;20041;-63
2021/09/19 09:49:49;;;;;;;5.85;2.10;;;15.00;74.50;;;;;;5018768;28;20108;-62
2021/09/19 09:52:26;;;;;;;5.03;2.35;;;15.00;73.60;;;;;;5015334;28;20034;-63
2021/09/19 09:55:01;;;;;;;4.72;2.25;;;15.10;75.40;;;;;;5016744;28;20045;-62
2021/09/19 09:57:36;;;;;;;3.85;2.20;;;15.30;75.60;;;;;;5021436;28;20034;-62
2021/09/19 10:00:05;;;;;;;3.58;1.77;;;15.30;72.60;;;;;;5024641;28;20044;-61
2021/09/19 10:02:31;;;;;;;4.20;2.03;;;15.40;74.50;;;;;;5010485;28;20034;-64
2021/09/19 10:04:57;;;;;;;4.30;1.85;;;15.10;70.50;;;;;;5016156;28;20038;-62
2021/09/19 10:07:23;;;;;;;4.30;2.05;;;15.20;70.30;;;;;;5017166;28;20141;-65
2021/09/19 10:09:49;;;;;;;3.20;1.88;;;15.40;72.80;;;;;;5007291;28;20045;-64
2021/09/19 10:12:20;;;;;;;2.45;1.52;;;15.50;71.70;;;;;;5016627;28;21182;-66
2021/09/19 10:14:49;;;;;;;3.70;1.80;;;15.80;72.00;;;;;;5022236;28;20129;-64
2021/09/19 10:17:18;;;;;;;4.18;1.73;;;15.40;70.10;;;;;;5012738;28;20056;-65
2021/09/19 10:19:44;;;;;;;5.80;1.98;;;15.70;71.00;;;;;;5020459;28;20415;-65
2021/09/19 10:22:14;;;;;;;4.00;2.15;;;15.70;69.90;;;;;;5019885;28;20025;-66
2021/09/19 10:24:40;;;;;;;5.25;1.90;;;15.90;68.00;;;;;;5016684;28;20036;-64
2021/09/19 10:27:30;;;;;;;4.50;2.00;;;16.00;69.10;;;;;;5024809;28;20030;-66
2021/09/19 10:29:57;;;;;;;3.17;1.77;;;16.10;66.60;;;;;;5024530;28;20077;-65
2021/09/19 10:32:41;;;;;;;3.38;1.65;;;16.00;69.30;;;;;;5013918;28;20025;-65
2021/09/19 10:35:15;;;;;;;5.32;1.60;;;16.00;66.00;;;;;;5012440;28;20985;-65
2021/09/19 10:38:04;;;;;;;3.03;1.83;;;15.80;69.00;;;;;;5013694;28;20497;-65
2021/09/19 10:40:34;;;;;;;3.55;1.75;;;16.50;69.20;;;;;;5016116;28;20104;-66
2021/09/19 10:43:00;;;;;;;6.33;2.20;;;16.60;69.30;;;;;;5010777;28;20018;-64
2021/09/19 10:45:42;;;;;;;3.92;2.00;;;16.10;63.90;;;;;;5016259;28;20764;-66
2021/09/19 10:48:18;;;;;;;3.80;1.58;;;16.40;64.30;;;;;;5014994;28;21006;-66
2021/09/19 10:50:45;;;;;;;3.47;1.95;;;16.20;64.00;;;;;;5022441;28;20528;-66
2021/09/19 10:53:22;;;;;;;4.07;1.83;;;16.30;67.70;;;;;;5012425;28;20523;-64
2021/09/19 10:55:53;;;;;;;6.15;1.63;;;16.50;65.50;;;;;;5014340;28;20017;-66
2021/09/19 10:58:21;;;;;;;3.83;1.75;;;16.50;63.40;;;;;;5012132;28;20151;-66
2021/09/19 11:01:09;;;;;;;3.55;1.90;;;16.20;62.10;;;;;;5011439;28;20041;-65
2021/09/19 11:03:36;;;;;;;2.80;1.80;;;16.10;61.80;;;;;;5021206;28;20022;-64
2021/09/19 11:06:02;;;;;;;3.30;1.90;;;16.10;63.30;;;;;;5012898;28;20042;-66
2021/09/19 11:08:39;;;;;;;5.45;1.70;;;16.70;62.80;;;;;;5013803;28;20034;-66
2021/09/19 11:11:10;;;;;;;3.05;1.60;;;17.00;62.80;;;;;;5024040;28;20041;-66
2021/09/19 11:13:45;;;;;;;;;;;17.20;60.80;;;;;;5012660;28;20033;-66
2021/09/19 11:16:34;;;;;;;3.08;1.83;;;16.90;57.80;;;;;;5016276;28;19909;-66
2021/09/19 11:19:05;;;;;;;4.50;1.60;;;16.80;63.40;;;;;;5011168;28;20092;-66
2021/09/19 11:21:36;;;;;;;4.32;1.60;;;16.60;63.90;;;;;;5020633;28;20072;-65
2021/09/19 11:24:05;;;;;;;3.63;1.50;;;16.70;62.50;;;;;;5017663;28;20071;-64
2021/09/19 11:26:47;;;;;;;3.17;1.63;;;16.30;64.10;;;;;;4981957;28;20727;-66
2021/09/19 11:29:19;;;;;;;2.90;1.60;;;16.20;63.40;;;;;;5028530;28;20046;-64
2021/09/19 11:31:47;;;;;;;3.13;1.70;;;16.60;64.40;;;;;;5016860;28;20084;-66
2021/09/19 11:34:15;;;;;;;3.05;1.50;;;16.90;65.00;;;;;;5012804;28;20052;-65
2021/09/19 11:36:44;;;;;;;5.40;1.77;;;16.90;62.10;;;;;;5018161;28;20021;-66
2021/09/19 11:39:10;;;;;;;4.38;1.65;;;16.90;64.50;;;;;;5022201;28;20156;-66
2021/09/19 11:41:36;;;;;;;3.00;1.55;;;17.00;64.50;;;;;;5014587;28;20605;-65
2021/09/19 11:44:02;;;;;;;3.40;1.75;;;16.90;65.70;;;;;;5022917;28;20026;-66
2021/09/19 11:46:29;;;;;;;3.15;1.60;;;17.00;64.90;;;;;;5012484;28;20032;-66
2021/09/19 11:48:55;;;;;;;2.47;1.50;;;16.90;63.90;;;;;;5025030;28;20583;-64
2021/09/19 11:51:22;;;;;;;2.88;1.80;;;17.30;63.50;;;;;;5022337;28;20033;-64
2021/09/19 11:53:54;;;;;;;3.95;2.13;;;17.30;60.00;;;;;;5023879;28;20120;-65
2021/09/19 11:56:21;;;;;;;3.50;1.77;;;17.70;62.10;;;;;;5024696;28;20496;-65
2021/09/19 11:58:49;;;;;;;3.35;1.67;;;17.90;60.40;;;;;;5018396;28;20029;-65
2021/09/19 12:01:15;;;;;;;2.92;1.65;;;17.50;59.90;;;;;;5020005;28;20025;-65
2021/09/19 12:03:41;;;;;;;5.32;1.60;;;17.50;60.10;;;;;;5020081;28;20040;-66
2021/09/19 12:06:08;;;;;;;3.35;1.50;;;17.00;58.90;;;;;;5023730;28;20034;-66
2021/09/19 12:08:35;;;;;;;5.10;1.65;;;16.60;59.50;;;;;;5018116;28;20350;-65
2021/09/19 12:11:03;;;;;;;4.38;1.88;;;16.90;61.70;;;;;;5024500;28;20091;-65
2021/09/19 12:13:31;;;;;;;3.60;1.63;;;17.10;62.20;;;;;;5021969;28;20025;-65
2021/09/19 12:16:12;;;;;;;3.22;1.67;;;17.30;64.20;;;;;;5022323;28;20516;-65
2021/09/19 12:18:42;;;;;;;3.08;1.50;;;17.40;63.30;;;;;;5021250;28;20034;-65
2021/09/19 12:21:13;;;;;;;;;;;17.30;61.50;;;;;;5022328;28;20113;-66
2021/09/19 12:23:58;;;;;;;4.93;1.80;;;17.50;64.30;;;;;;5027579;28;20060;-66
2021/09/19 12:26:27;;;;;;;4.53;1.85;;;17.40;63.40;;;;;;5021409;28;20447;-65
2021/09/19 12:28:56;;;;;;;3.55;1.48;;;17.20;60.50;;;;;;5022589;28;20041;-63
2021/09/19 12:31:37;;;;;;;3.28;1.40;;;17.10;61.00;;;;;;5025253;28;20026;-65
2021/09/19 12:34:05;;;;;;;3.30;1.90;;;16.90;59.20;;;;;;5021773;28;20037;-66
2021/09/19 12:36:39;;;;;;;3.83;1.60;;;17.40;59.90;;;;;;5020556;28;20535;-66
2021/09/19 12:39:04;;;;;;;3.55;1.60;;;17.40;60.80;;;;;;5018083;28;20370;-66
2021/09/19 12:41:31;;;;;;;5.32;1.50;;;17.40;61.70;;;;;;5022839;28;20036;-64
2021/09/19 12:43:57;;;;;;;3.28;1.63;;;17.40;60.50;;;;;;5022990;28;20560;-66
2021/09/19 12:46:23;;;;;;;6.70;1.88;;;17.00;58.60;;;;;;5025256;28;20094;-65